createdAt,value
2022-09-07T00:01:09.697Z,3.75
2022-09-07T00:03:37.776Z,2.38
2022-09-07T00:06:10.855Z,4.57
2022-09-07T00:08:41.180Z,5.07
2022-09-07T00:11:13.454Z,4.30
2022-09-07T00:13:42.700Z,4.67
2022-09-07T00:16:12.680Z,2.40
2022-09-07T00:18:45.195Z,2.33
2022-09-07T00:21:15.718Z,2.13
2022-09-07T00:23:45.945Z,2.38
2022-09-07T00:26:15.667Z,4.40
2022-09-07T00:28:44.334Z,2.08
2022-09-07T00:31:14.208Z,2.60
2022-09-07T00:33:42.549Z,2.13
2022-09-07T00:36:10.764Z,2.80
2022-09-07T00:38:39.315Z,2.65
2022-09-07T00:41:08.998Z,2.20
2022-09-07T00:43:38.608Z,2.58
2022-09-07T00:46:08.875Z,7.35
2022-09-07T00:48:41.521Z,3.00
2022-09-07T00:51:13.140Z,4.20
2022-09-07T00:53:44.504Z,3.15
2022-09-07T00:56:14.887Z,4.05
2022-09-07T00:58:44.840Z,2.60
2022-09-07T01:01:13.080Z,2.80
2022-09-07T01:03:44.620Z,2.40
2022-09-07T01:06:17.343Z,2.88
2022-09-07T01:08:48.591Z,2.20
2022-09-07T01:11:19.495Z,3.90
2022-09-07T01:13:48.511Z,4.45
2022-09-07T01:16:27.925Z,3.55
2022-09-07T01:19:10.193Z,4.63
2022-09-07T01:21:52.408Z,3.40
2022-09-07T01:24:39.893Z,5.88
2022-09-07T01:27:59.222Z,4.80
2022-09-07T01:30:28.575Z,4.70
2022-09-07T01:33:16.242Z,5.65
2022-09-07T01:35:51.554Z,5.43
2022-09-07T01:38:26.291Z,5.37
2022-09-07T01:41:03.279Z,3.63
2022-09-07T01:43:39.023Z,5.70
2022-09-07T01:46:20.031Z,5.65
2022-09-07T01:48:53.452Z,5.00
2022-09-07T01:51:24.208Z,4.88
2022-09-07T01:53:58.128Z,4.20
2022-09-07T01:56:29.910Z,4.67
2022-09-07T01:59:04.776Z,4.40
2022-09-07T02:01:37.639Z,6.07
2022-09-07T02:04:11.127Z,4.10
2022-09-07T02:06:46.060Z,2.80
2022-09-07T02:09:19.987Z,3.50
2022-09-07T02:11:50.114Z,3.08
2022-09-07T02:14:24.620Z,6.03
2022-09-07T02:16:58.806Z,3.90
2022-09-07T02:19:31.091Z,3.45
2022-09-07T02:22:04.344Z,1.83
2022-09-07T02:24:37.717Z,6.22
2022-09-07T02:27:12.189Z,2.05
2022-09-07T02:29:41.725Z,3.07
2022-09-07T02:32:09.688Z,5.38
2022-09-07T02:34:38.322Z,6.23
2022-09-07T02:37:10.030Z,5.70
2022-09-07T02:39:38.504Z,5.25
2022-09-07T02:42:07.156Z,2.80
2022-09-07T02:44:38.399Z,4.10
2022-09-07T02:47:28.093Z,4.05
2022-09-07T02:50:10.651Z,3.90
2022-09-07T02:52:52.003Z,2.58
2022-09-07T02:55:32.880Z,1.92
2022-09-07T02:58:12.838Z,3.35
2022-09-07T03:00:46.201Z,2.58
2022-09-07T03:03:23.487Z,2.17
2022-09-07T03:05:56.132Z,3.72
2022-09-07T03:08:27.466Z,4.03
2022-09-07T03:10:55.821Z,2.90
2022-09-07T03:13:25.992Z,3.40
2022-09-07T03:15:56.251Z,2.67
2022-09-07T03:18:28.009Z,3.25
2022-09-07T03:20:56.295Z,3.22
2022-09-07T03:23:24.980Z,1.95
2022-09-07T03:25:52.971Z,3.53
2022-09-07T03:28:21.026Z,4.38
2022-09-07T03:30:48.985Z,1.83
2022-09-07T03:33:17.727Z,1.90
2022-09-07T03:35:57.503Z,4.25
2022-09-07T03:38:25.506Z,3.70
2022-09-07T03:40:59.428Z,2.40
2022-09-07T03:43:30.223Z,3.03
2022-09-07T03:45:59.777Z,1.98
2022-09-07T03:48:28.534Z,2.15
2022-09-07T03:50:59.362Z,2.22
2022-09-07T03:53:27.590Z,1.88
2022-09-07T03:55:59.823Z,2.70
2022-09-07T03:58:30.331Z,2.70
2022-09-07T04:01:00.443Z,2.88
2022-09-07T04:03:28.526Z,2.08
2022-09-07T04:05:57.333Z,3.13
2022-09-07T04:08:27.508Z,2.00
2022-09-07T04:10:57.323Z,2.80
2022-09-07T04:13:25.453Z,2.37
2022-09-07T04:15:54.053Z,1.95
2022-09-07T04:18:25.280Z,3.45
2022-09-07T04:20:53.192Z,2.15
2022-09-07T04:23:21.199Z,2.95
2022-09-07T04:25:51.148Z,4.40
2022-09-07T04:28:20.690Z,3.25
2022-09-07T04:30:48.969Z,6.38
2022-09-07T04:33:17.000Z,3.95
2022-09-07T04:35:44.882Z,6.45
2022-09-07T04:38:16.348Z,6.37
2022-09-07T04:40:44.967Z,2.90
2022-09-07T04:43:14.277Z,2.80
2022-09-07T04:45:42.627Z,3.83
2022-09-07T04:48:10.563Z,3.63
2022-09-07T04:50:38.475Z,3.67
2022-09-07T04:53:06.415Z,4.63
2022-09-07T04:55:34.326Z,6.07
2022-09-07T04:58:02.290Z,4.50
2022-09-07T05:00:32.069Z,4.35
2022-09-07T05:03:00.015Z,3.15
2022-09-07T05:05:27.900Z,7.68
2022-09-07T05:07:58.492Z,3.63
2022-09-07T05:10:26.417Z,2.65
2022-09-07T05:12:54.335Z,4.22
2022-09-07T05:15:24.375Z,2.60
2022-09-07T05:17:53.919Z,2.65
2022-09-07T05:20:21.884Z,4.17
2022-09-07T05:22:49.838Z,3.30
2022-09-07T05:25:17.780Z,3.30
2022-09-07T05:27:45.682Z,5.38
2022-09-07T05:33:04.440Z,8.20
2022-09-07T05:35:32.451Z,7.30
2022-09-07T05:38:00.380Z,4.47
2022-09-07T05:40:33.618Z,5.30
2022-09-07T05:43:04.174Z,3.90
2022-09-07T05:45:32.459Z,4.73
2022-09-07T05:48:00.383Z,5.77
2022-09-07T05:50:29.610Z,6.18
2022-09-07T05:52:57.528Z,6.82
2022-09-07T05:55:30.375Z,5.20
2022-09-07T05:57:58.777Z,8.45
2022-09-07T06:00:27.203Z,5.00
2022-09-07T06:02:55.120Z,4.53
2022-09-07T06:05:23.021Z,5.70
2022-09-07T06:07:53.095Z,6.85
2022-09-07T06:13:09.501Z,6.57
2022-09-07T06:15:37.404Z,7.70
2022-09-07T06:18:05.365Z,6.03
2022-09-07T06:20:33.258Z,5.65
2022-09-07T06:23:02.565Z,6.25
2022-09-07T06:25:30.573Z,9.68
2022-09-07T06:27:59.649Z,8.67
2022-09-07T06:30:27.582Z,5.63
2022-09-07T06:32:55.625Z,6.25
2022-09-07T06:35:23.513Z,5.28
2022-09-07T06:37:51.502Z,6.03
2022-09-07T06:40:20.787Z,5.35
2022-09-07T06:42:48.722Z,4.82
2022-09-07T06:45:19.927Z,5.80
2022-09-07T06:47:47.923Z,8.17
2022-09-07T06:50:17.202Z,6.30
2022-09-07T06:55:34.611Z,7.78
2022-09-07T06:58:03.052Z,5.53
2022-09-07T07:00:30.981Z,6.95
2022-09-07T07:02:58.959Z,5.30
2022-09-07T07:05:27.005Z,4.65
2022-09-07T07:07:56.310Z,7.18
2022-09-07T07:10:25.096Z,6.07
2022-09-07T07:12:58.003Z,8.20
2022-09-07T07:15:28.913Z,6.83
2022-09-07T07:18:05.192Z,6.45
2022-09-07T07:20:43.046Z,4.03
2022-09-07T07:23:12.092Z,5.53
2022-09-07T07:25:40.090Z,5.68
2022-09-07T07:30:58.325Z,8.47
2022-09-07T07:33:26.755Z,4.38
2022-09-07T07:35:54.672Z,3.55
2022-09-07T07:44:01.033Z,5.55
2022-09-07T07:46:32.345Z,4.07
2022-09-07T07:49:00.441Z,5.95
2022-09-07T07:51:30.909Z,4.30
2022-09-07T07:53:59.216Z,6.30
2022-09-07T07:56:29.802Z,5.93
2022-09-07T07:58:57.740Z,5.80
2022-09-07T08:01:27.250Z,3.20
2022-09-07T08:03:55.219Z,4.32
2022-09-07T08:06:23.107Z,6.10
2022-09-07T08:08:51.180Z,7.28
2022-09-07T08:11:21.988Z,6.43
2022-09-07T08:13:52.098Z,6.32
2022-09-07T08:16:20.239Z,5.85
2022-09-07T08:18:49.804Z,6.23
2022-09-07T08:21:18.225Z,4.70
2022-09-07T08:23:45.958Z,4.43
2022-09-07T08:26:13.756Z,5.05
2022-09-07T08:28:43.896Z,3.95
2022-09-07T08:31:13.532Z,6.57
2022-09-07T08:33:41.572Z,4.82
2022-09-07T08:36:14.006Z,6.53
2022-09-07T08:38:42.307Z,5.03
2022-09-07T08:41:47.188Z,5.28
2022-09-07T08:44:22.001Z,3.40
2022-09-07T08:46:54.267Z,5.67
2022-09-07T08:49:29.935Z,7.60
2022-09-07T08:52:04.365Z,7.13
2022-09-07T08:54:33.087Z,7.07
2022-09-07T08:59:58.702Z,4.90
2022-09-07T09:02:28.189Z,6.97
2022-09-07T09:07:53.785Z,4.63
2022-09-07T09:10:33.410Z,4.07
2022-09-07T09:13:07.587Z,4.22
2022-09-07T09:15:51.704Z,6.35
2022-09-07T09:18:31.497Z,8.27
2022-09-07T09:21:00.723Z,8.33
2022-09-07T09:23:37.418Z,5.95
2022-09-07T09:26:14.650Z,8.93
2022-09-07T09:28:42.794Z,5.97
2022-09-07T09:31:18.804Z,7.57
2022-09-07T09:34:08.422Z,6.35
2022-09-07T09:36:42.602Z,7.80
2022-09-07T09:39:31.722Z,5.85
2022-09-07T09:42:02.614Z,6.28
2022-09-07T09:44:35.409Z,5.23
2022-09-07T09:49:53.548Z,5.90
2022-09-07T09:52:33.672Z,6.78
2022-09-07T09:55:32.684Z,6.87
2022-09-07T10:04:01.439Z,9.02
2022-09-07T10:06:32.265Z,5.63
2022-09-07T10:09:02.449Z,7.47
2022-09-07T10:14:37.294Z,6.53
2022-09-07T10:17:14.437Z,7.28
2022-09-07T10:19:44.239Z,4.97
2022-09-07T10:22:25.749Z,6.47
2022-09-07T10:24:53.577Z,6.22
2022-09-07T10:27:31.032Z,6.13
2022-09-07T10:30:01.812Z,8.03
2022-09-07T10:32:53.125Z,7.18
2022-09-07T10:41:08.373Z,7.53
2022-09-07T10:44:03.706Z,5.22
2022-09-07T10:47:00.675Z,9.73
2022-09-07T10:49:36.186Z,5.70
2022-09-07T10:52:16.217Z,7.55
2022-09-07T10:54:52.276Z,4.50
2022-09-07T10:57:49.118Z,6.72
2022-09-07T11:00:20.741Z,6.60
2022-09-07T11:06:01.909Z,6.40
2022-09-07T11:14:27.259Z,3.47
2022-09-07T11:17:01.745Z,6.50
2022-09-07T11:19:36.256Z,6.18
2022-09-07T11:22:16.892Z,7.60
2022-09-07T11:25:29.212Z,6.35
2022-09-07T11:27:43.566Z,6.13
2022-09-07T11:30:24.673Z,3.97
2022-09-07T11:33:11.507Z,5.57
2022-09-07T11:35:48.336Z,6.85
2022-09-07T11:38:25.418Z,4.53
2022-09-07T11:41:25.493Z,5.78
2022-09-07T11:44:05.661Z,5.45
2022-09-07T11:46:41.798Z,4.60
2022-09-07T11:49:18.890Z,4.18
2022-09-07T11:51:55.213Z,4.35
2022-09-07T11:54:39.509Z,6.95
2022-09-07T11:57:26.304Z,5.53
2022-09-07T12:00:03.863Z,4.30
2022-09-07T12:03:13.155Z,6.20
2022-09-07T12:06:03.007Z,7.13
2022-09-07T12:08:44.237Z,5.40
2022-09-07T12:11:27.452Z,4.40
2022-09-07T12:14:18.833Z,5.30
2022-09-07T12:17:07.277Z,5.97
2022-09-07T12:19:35.268Z,3.53
2022-09-07T12:22:05.394Z,5.15
2022-09-07T12:24:52.393Z,4.32
2022-09-07T12:27:41.675Z,5.30
2022-09-07T12:30:51.931Z,5.63
2022-09-07T12:33:39.181Z,5.00
2022-09-07T12:36:50.243Z,5.03
2022-09-07T12:39:25.795Z,4.10
2022-09-07T12:45:38.157Z,6.88
2022-09-07T12:48:12.112Z,5.25
2022-09-07T12:50:44.267Z,5.55
2022-09-07T12:53:29.711Z,3.67
2022-09-07T12:56:16.532Z,5.82
2022-09-07T12:58:56.870Z,3.03
2022-09-07T13:01:36.392Z,3.53
2022-09-07T13:04:31.801Z,3.73
2022-09-07T13:07:25.679Z,4.15
2022-09-07T13:09:57.351Z,3.80
2022-09-07T13:15:43.592Z,4.72
2022-09-07T13:18:34.050Z,4.13
2022-09-07T13:21:30.934Z,5.90
2022-09-07T13:24:46.381Z,3.38
2022-09-07T13:27:51.825Z,4.00
2022-09-07T13:30:27.166Z,5.23
2022-09-07T13:33:43.151Z,2.67
2022-09-07T13:36:21.864Z,4.30
2022-09-07T13:38:53.110Z,4.68
2022-09-07T13:41:23.727Z,3.75
2022-09-07T13:44:00.333Z,5.72
2022-09-07T13:46:50.154Z,5.90
2022-09-07T13:49:29.876Z,2.72
2022-09-07T13:52:07.506Z,3.33
2022-09-07T13:54:50.560Z,4.35
2022-09-07T13:57:26.367Z,1.70
2022-09-07T13:59:56.480Z,4.05
2022-09-07T14:02:26.851Z,2.58
2022-09-07T14:04:57.376Z,4.03
2022-09-07T14:07:26.880Z,4.72
2022-09-07T14:10:19.578Z,5.70
2022-09-07T14:12:50.403Z,3.65
2022-09-07T14:15:28.172Z,5.35
2022-09-07T14:18:04.946Z,4.53
2022-09-07T14:20:37.933Z,3.90
2022-09-07T14:23:13.277Z,2.28
2022-09-07T14:28:36.944Z,4.55
2022-09-07T14:31:09.295Z,4.15
2022-09-07T14:33:37.515Z,3.27
2022-09-07T14:36:29.574Z,3.40
2022-09-07T14:39:04.487Z,2.92
2022-09-07T14:41:34.673Z,4.30
2022-09-07T14:44:02.937Z,3.30
2022-09-07T14:46:34.086Z,3.88
2022-09-07T14:49:04.919Z,4.00
2022-09-07T14:51:36.545Z,6.25
2022-09-07T14:54:07.000Z,2.20
2022-09-07T14:56:36.571Z,3.60
2022-09-07T14:59:28.134Z,4.13
2022-09-07T15:02:41.011Z,5.25
2022-09-07T15:05:30.785Z,6.68
2022-09-07T15:07:59.854Z,4.60
2022-09-07T15:10:41.281Z,6.70
2022-09-07T15:13:25.905Z,4.88
2022-09-07T15:15:59.205Z,5.78
2022-09-07T15:18:54.633Z,5.10
2022-09-07T15:21:28.882Z,5.15
2022-09-07T15:23:59.065Z,2.07
2022-09-07T15:29:20.632Z,2.53
2022-09-07T15:32:01.066Z,4.37
2022-09-07T15:34:29.450Z,4.47
2022-09-07T15:37:00.279Z,4.80
2022-09-07T15:39:31.129Z,3.83
2022-09-07T15:42:58.963Z,3.80
2022-09-07T15:44:47.485Z,4.35
2022-09-07T15:50:03.393Z,4.65
2022-09-07T15:52:34.741Z,3.30
2022-09-07T15:55:02.560Z,5.07
2022-09-07T15:57:48.724Z,3.15
2022-09-07T16:00:17.467Z,5.10
2022-09-07T16:03:09.411Z,5.68
2022-09-07T16:05:41.426Z,6.18
2022-09-07T16:08:26.392Z,3.70
2022-09-07T16:10:55.694Z,2.47
2022-09-07T16:13:33.870Z,3.75
2022-09-07T16:16:06.392Z,4.05
2022-09-07T16:18:47.645Z,4.10
2022-09-07T16:21:18.448Z,4.28
2022-09-07T16:23:50.627Z,3.58
2022-09-07T16:26:20.457Z,2.83
2022-09-07T16:28:52.423Z,5.63
2022-09-07T16:31:30.916Z,3.67
2022-09-07T16:33:59.140Z,3.63
2022-09-07T16:36:57.404Z,2.50
2022-09-07T16:44:04.244Z,2.85
2022-09-07T16:46:34.800Z,2.72
2022-09-07T16:49:02.979Z,4.95
2022-09-07T16:51:33.239Z,5.05
2022-09-07T16:54:01.502Z,2.27
2022-09-07T16:56:33.653Z,2.15
2022-09-07T16:59:08.656Z,4.40
2022-09-07T17:01:38.957Z,4.47
2022-09-07T17:04:11.022Z,3.35
2022-09-07T17:06:40.560Z,5.00
2022-09-07T17:09:09.065Z,3.05
2022-09-07T17:11:37.766Z,3.80
2022-09-07T17:14:07.499Z,4.55
2022-09-07T17:16:37.602Z,1.80
2022-09-07T17:21:55.367Z,3.70
2022-09-07T17:24:25.237Z,3.22
2022-09-07T17:26:53.093Z,3.90
2022-09-07T17:29:22.260Z,1.50
2022-09-07T17:34:37.985Z,3.40
2022-09-07T17:37:06.010Z,2.90
2022-09-07T17:39:33.845Z,2.47
2022-09-07T17:42:02.430Z,1.33
2022-09-07T17:44:35.999Z,2.67
2022-09-07T17:47:06.036Z,1.55
2022-09-07T17:49:33.796Z,2.58
2022-09-07T17:52:01.693Z,2.03
2022-09-07T17:54:31.864Z,2.40
2022-09-07T17:56:59.670Z,2.72
2022-09-07T18:02:17.210Z,3.42
2022-09-07T18:04:45.079Z,2.33
2022-09-07T18:07:15.686Z,3.83
2022-09-07T18:09:43.591Z,6.37
2022-09-07T18:12:11.413Z,3.97
2022-09-07T18:14:39.286Z,4.93
2022-09-07T18:17:07.125Z,3.88
2022-09-07T18:19:36.438Z,4.50
2022-09-07T18:22:04.688Z,4.32
2022-09-07T18:24:32.462Z,2.95
2022-09-07T18:27:00.309Z,3.67
2022-09-07T18:29:32.531Z,3.93
2022-09-07T18:32:02.515Z,4.70
2022-09-07T18:34:32.752Z,4.22
2022-09-07T18:37:02.407Z,2.23
2022-09-07T18:39:31.365Z,1.33
2022-09-07T18:41:59.197Z,1.45
2022-09-07T18:47:22.086Z,2.92
2022-09-07T18:49:51.849Z,3.55
2022-09-07T18:55:10.579Z,3.80
2022-09-07T18:57:38.658Z,2.03
2022-09-07T19:00:09.842Z,3.90
2022-09-07T19:02:37.680Z,2.00
2022-09-07T19:07:55.712Z,2.35
2022-09-07T19:10:23.541Z,3.92
2022-09-07T19:12:51.380Z,2.72
2022-09-07T19:15:20.440Z,1.63
2022-09-07T19:17:48.235Z,2.78
2022-09-07T19:20:16.067Z,1.65
2022-09-07T19:22:43.870Z,1.63
2022-09-07T19:25:13.253Z,2.40
2022-09-07T19:27:41.093Z,2.00
2022-09-07T19:30:10.218Z,3.28
2022-09-07T19:32:38.268Z,3.38
2022-09-07T19:35:06.536Z,1.50
2022-09-07T19:37:34.467Z,2.28
2022-09-07T19:40:02.506Z,1.42
2022-09-07T19:42:31.737Z,1.20
2022-09-07T19:45:00.083Z,3.00
2022-09-07T19:47:28.144Z,2.47
2022-09-07T19:49:58.248Z,1.40
2022-09-07T19:52:26.796Z,2.00
2022-09-07T19:54:54.640Z,1.70
2022-09-07T19:57:22.439Z,2.38
2022-09-07T19:59:53.028Z,1.50
2022-09-07T20:02:20.853Z,1.63
2022-09-07T20:04:48.861Z,2.20
2022-09-07T20:07:16.717Z,2.55
2022-09-07T20:09:50.439Z,1.50
2022-09-07T20:12:19.135Z,1.20
2022-09-07T20:14:46.931Z,1.48
2022-09-07T20:17:16.138Z,2.63
2022-09-07T20:19:44.148Z,1.83
2022-09-07T20:22:11.947Z,3.78
2022-09-07T20:24:39.969Z,1.70
2022-09-07T20:27:07.764Z,2.13
2022-09-07T20:29:35.858Z,1.50
2022-09-07T20:32:04.280Z,2.50
2022-09-07T20:34:33.767Z,1.67
2022-09-07T20:37:02.057Z,3.10
2022-09-07T20:39:29.890Z,2.58
2022-09-07T20:41:57.766Z,2.42
2022-09-07T20:44:25.579Z,2.20
2022-09-07T20:46:53.403Z,1.65
2022-09-07T20:49:21.271Z,1.88
2022-09-07T20:51:50.677Z,1.40
2022-09-07T20:54:19.104Z,2.25
2022-09-07T20:56:46.961Z,2.05
2022-09-07T20:59:15.304Z,1.73
2022-09-07T21:01:43.198Z,1.87
2022-09-07T21:04:11.033Z,2.15
2022-09-07T21:06:38.926Z,2.87
2022-09-07T21:09:08.088Z,2.92
2022-09-07T21:11:36.468Z,2.20
2022-09-07T21:14:06.908Z,1.92
2022-09-07T21:16:37.602Z,3.75
2022-09-07T21:19:07.894Z,2.60
2022-09-07T21:21:39.185Z,1.47
2022-09-07T21:24:16.812Z,1.88
2022-09-07T21:26:44.900Z,1.45
2022-09-07T21:29:18.366Z,1.80
2022-09-07T21:31:46.335Z,1.40
2022-09-07T21:34:15.424Z,1.40
2022-09-07T21:36:43.633Z,1.40
2022-09-07T21:39:14.699Z,1.30
2022-09-07T21:41:43.073Z,1.83
2022-09-07T21:44:13.385Z,1.73
2022-09-07T21:46:42.283Z,3.03
2022-09-07T21:49:10.290Z,2.03
2022-09-07T21:51:38.125Z,2.22
2022-09-07T21:54:06.058Z,3.25
2022-09-07T21:56:35.480Z,1.40
2022-09-07T21:59:04.657Z,2.30
2022-09-07T22:01:33.165Z,1.95
2022-09-07T22:04:02.569Z,1.75
2022-09-07T22:06:32.277Z,2.22
2022-09-07T22:09:01.208Z,1.77
2022-09-07T22:11:30.676Z,3.03
2022-09-07T22:14:02.659Z,3.63
2022-09-07T22:16:32.344Z,1.90
2022-09-07T22:19:00.486Z,2.88
2022-09-07T22:21:30.710Z,2.35
2022-09-07T22:24:00.578Z,2.13
2022-09-07T22:26:30.111Z,1.50
2022-09-07T22:29:00.034Z,2.38
2022-09-07T22:31:29.751Z,1.80
2022-09-07T22:33:58.463Z,2.15
2022-09-07T22:36:28.424Z,2.08
2022-09-07T22:38:57.870Z,1.88
2022-09-07T22:41:27.337Z,1.50
2022-09-07T22:43:56.034Z,2.63
2022-09-07T22:46:30.856Z,2.90
2022-09-07T22:49:00.089Z,2.00
2022-09-07T22:51:28.735Z,2.20
2022-09-07T22:53:57.859Z,1.60
2022-09-07T22:56:28.173Z,2.28
2022-09-07T22:58:58.674Z,2.28
2022-09-07T23:01:29.718Z,4.32
2022-09-07T23:03:58.081Z,3.25
2022-09-07T23:06:27.972Z,3.03
2022-09-07T23:08:57.813Z,2.77
2022-09-07T23:11:25.786Z,1.63
2022-09-07T23:13:54.649Z,2.53
2022-09-07T23:16:23.406Z,1.75
2022-09-07T23:18:52.977Z,4.03
2022-09-07T23:21:21.145Z,2.60
2022-09-07T23:23:53.154Z,3.53
2022-09-07T23:26:21.839Z,3.83
2022-09-07T23:28:52.369Z,4.18
2022-09-07T23:31:20.413Z,4.18
2022-09-07T23:33:48.718Z,2.15
2022-09-07T23:36:18.628Z,1.60
2022-09-07T23:38:47.374Z,1.50
2022-09-07T23:41:16.431Z,2.45
2022-09-07T23:43:44.756Z,2.17
2022-09-07T23:46:13.236Z,3.00
2022-09-07T23:48:41.463Z,2.15
2022-09-07T23:51:09.358Z,3.83
2022-09-07T23:53:38.635Z,3.63
2022-09-07T23:56:07.482Z,2.88
2022-09-07T23:58:37.892Z,2.03
